Date,TemperatureHighF,TemperatureAvgF,TemperatureLowF,DewpointHighF,DewpointAvgF,DewpointLowF,HumidityHigh,HumidityAvg,HumidityLow,PressureMaxIn,PressureMinIn,WindSpeedMaxMPH,WindSpeedAvgMPH,GustSpeedMaxMPH,PrecipitationSumIn
2013-12-1,55.0,45.6,30.7,26.5,22.0,17.8,66,40,25,29.72,29.42,9,2,21,0.00
2013-12-2,58.7,51.9,44.6,26.4,23.5,21.0,46,33,23,29.44,29.13,10,4,27,0.00
2013-12-3,55.2,36.1,11.5,29.3,20.0,8.5,86,55,27,29.31,29.04,6,2,13,0.00
2013-12-4,12.5,7.6,1.4,8.4,3.7,-3.5,86,80,71,29.57,29.28,2,0,8,0.00
2013-12-5,5.4,1.5,-4.6,0.9,-3.4,-9.1,83,77,66,29.60,29.48,3,0,6,0.00
2013-12-6,7.8,0.5,-4.0,1.1,-4.1,-7.9,84,78,67,29.71,29.60,0,0,4,0.00
2013-12-7,9.2,2.4,-3.9,4.1,-2.0,-8.1,82,78,68,29.68,29.27,1,0,5,0.00
2013-12-8,19.1,8.8,3.6,10.5,4.3,0.3,84,78,64,29.53,29.21,4,0,10,0.00
2013-12-9,26.7,14.8,-2.7,9.6,3.0,-7.5,84,57,33,29.63,29.49,6,1,12,0.00
2013-12-10,46.3,33.6,20.8,17.7,12.3,6.1,59,40,27,29.78,29.43,9,3,23,0.10
2013-12-11,27.4,20.6,13.8,18.8,14.2,9.5,84,73,59,29.87,29.78,5,0,11,0.00
2013-12-12,49.3,33.3,18.8,20.3,16.8,11.6,84,51,26,29.83,29.48,3,0,6,0.00
2013-12-13,49.2,37.4,30.2,23.0,16.7,10.9,61,43,24,29.70,29.39,6,1,10,0.00
2013-12-14,45.1,34.7,24.4,21.2,16.9,13.9,70,48,28,29.82,29.68,7,2,14,0.00
2013-12-15,56.1,47.1,35.9,24.5,17.8,14.1,47,31,21,29.72,29.62,10,3,24,0.00
2013-12-16,63.3,52.3,40.7,18.9,14.4,10.0,32,22,12,29.80,29.63,11,3,24,0.00
2013-12-17,62.7,49.9,30.8,23.3,16.5,12.6,54,28,16,29.87,29.63,6,2,12,0.00
2013-12-18,66.7,57.1,47.1,22.4,15.4,12.9,26,19,12,29.62,29.28,6,2,13,0.00
2013-12-19,53.8,34.3,16.1,25.8,20.5,14.2,90,59,24,29.42,29.11,7,2,13,0.00
2013-12-20,23.9,19.5,16.0,20.9,17.1,14.2,91,88,84,29.41,29.18,3,0,8,0.00
2013-12-21,31.2,23.3,16.3,23.8,19.7,14.3,92,84,60,29.42,29.08,5,1,10,0.00
2013-12-22,39.2,28.0,17.8,23.8,18.2,12.9,88,68,36,29.77,29.43,7,1,16,0.02
2013-12-23,45.9,27.9,16.1,26.3,20.6,13.7,89,74,42,29.81,29.63,5,1,15,0.00
2013-12-24,51.0,41.7,29.5,29.7,19.8,8.1,60,41,25,29.82,29.50,8,3,19,0.02
2013-12-25,45.1,34.2,20.8,16.5,10.5,5.7,71,39,20,29.92,29.73,6,2,14,0.00
2013-12-26,54.8,44.5,28.9,16.3,12.2,3.8,45,27,18,29.85,29.71,6,2,15,0.00
2013-12-27,59.3,45.7,31.3,25.5,20.3,14.5,52,36,23,29.82,29.60,3,1,7,0.00
2013-12-28,56.6,39.6,21.0,26.6,22.2,17.4,84,51,29,29.77,29.42,6,2,12,0.00
2013-12-29,40.2,26.5,13.7,21.9,15.0,10.0,85,62,28,29.78,29.42,4,1,15,0.02
2013-12-30,49.8,40.4,30.2,17.2,13.7,10.7,53,33,23,29.73,29.49,7,2,15,0.00
2013-12-31,58.4,45.7,30.4,21.8,19.8,14.8,54,36,23,29.63,29.47,5,1,12,0.00